createdAt,value
2022-10-06T00:01:09.793Z,2.08
2022-10-06T00:06:43.913Z,1.88
2022-10-06T00:09:31.087Z,2.08
2022-10-06T00:12:18.271Z,2.10
2022-10-06T00:15:05.722Z,2.00
2022-10-06T00:17:52.805Z,2.10
2022-10-06T00:20:39.869Z,2.10
2022-10-06T00:23:28.525Z,2.22
2022-10-06T00:26:16.879Z,2.40
2022-10-06T00:29:05.072Z,2.78
2022-10-06T00:31:52.316Z,2.20
2022-10-06T00:34:39.442Z,2.17
2022-10-06T00:37:28.214Z,2.30
2022-10-06T00:40:15.939Z,2.20
2022-10-06T00:43:05.989Z,2.42
2022-10-06T00:45:53.221Z,2.30
2022-10-06T00:48:40.925Z,2.53
2022-10-06T00:51:30.462Z,2.10
2022-10-06T00:54:18.463Z,2.10
2022-10-06T00:57:06.719Z,2.17
2022-10-06T00:59:53.849Z,2.25
2022-10-06T01:02:49.204Z,2.50
2022-10-06T01:05:42.169Z,2.60
2022-10-06T01:08:31.086Z,2.13
2022-10-06T01:11:18.691Z,2.17
2022-10-06T01:14:05.946Z,1.90
2022-10-06T01:17:16.894Z,2.30
2022-10-06T01:20:10.470Z,2.67
2022-10-06T01:23:05.181Z,2.40
2022-10-06T01:25:53.245Z,2.58
2022-10-06T01:28:40.800Z,2.30
2022-10-06T01:31:28.462Z,2.50
2022-10-06T01:34:15.758Z,2.40
2022-10-06T01:37:03.684Z,2.00
2022-10-06T01:39:50.979Z,2.05
2022-10-06T01:42:38.511Z,2.40
2022-10-06T01:45:25.734Z,2.22
2022-10-06T01:48:13.021Z,2.10
2022-10-06T01:51:00.546Z,2.15
2022-10-06T01:53:47.633Z,1.88
2022-10-06T01:56:35.164Z,2.28
2022-10-06T02:06:19.452Z,2.25
2022-10-06T02:09:06.787Z,2.08
2022-10-06T02:11:54.030Z,2.42
2022-10-06T02:14:41.435Z,2.65
2022-10-06T02:17:29.801Z,2.78
2022-10-06T02:20:16.995Z,2.25
2022-10-06T02:23:04.237Z,2.33
2022-10-06T02:25:58.889Z,2.38
2022-10-06T02:28:46.901Z,2.30
2022-10-06T02:31:38.212Z,2.30
2022-10-06T02:34:26.955Z,3.17
2022-10-06T02:37:15.807Z,2.53
2022-10-06T02:40:03.143Z,2.55
2022-10-06T02:42:51.741Z,2.70
2022-10-06T02:45:43.133Z,2.50
2022-10-06T02:48:31.145Z,2.70
2022-10-06T02:51:21.026Z,2.38
2022-10-06T02:54:08.754Z,2.80
2022-10-06T02:56:55.851Z,2.78
2022-10-06T02:59:43.108Z,2.40
2022-10-06T03:02:31.040Z,2.40
2022-10-06T03:05:18.657Z,2.50
2022-10-06T03:08:05.996Z,2.60
2022-10-06T03:10:59.627Z,2.53
2022-10-06T03:13:47.625Z,2.60
2022-10-06T03:16:40.231Z,2.20
2022-10-06T03:19:32.737Z,2.50
2022-10-06T03:22:20.481Z,2.55
2022-10-06T03:25:13.927Z,2.65
2022-10-06T03:28:01.361Z,2.60
2022-10-06T03:30:48.475Z,2.45
2022-10-06T03:33:36.962Z,2.90
2022-10-06T03:36:27.981Z,2.83
2022-10-06T03:39:15.180Z,2.55
2022-10-06T03:42:02.300Z,3.25
2022-10-06T03:44:49.526Z,2.92
2022-10-06T03:47:37.064Z,2.72
2022-10-06T03:50:24.430Z,2.50
2022-10-06T03:53:11.519Z,2.80
2022-10-06T03:56:10.982Z,2.63
2022-10-06T03:59:00.405Z,2.80
2022-10-06T04:01:49.156Z,2.80
2022-10-06T04:04:40.866Z,2.72
2022-10-06T04:07:29.930Z,4.38
2022-10-06T04:10:17.028Z,2.95
2022-10-06T04:13:04.593Z,2.95
2022-10-06T04:15:51.822Z,2.97
2022-10-06T04:18:39.626Z,3.20
2022-10-06T04:21:27.990Z,3.28
2022-10-06T04:24:18.374Z,3.10
2022-10-06T04:27:26.342Z,2.97
2022-10-06T04:30:29.274Z,2.97
2022-10-06T04:33:16.547Z,3.00
2022-10-06T04:36:06.201Z,2.90
2022-10-06T04:38:58.476Z,2.83
2022-10-06T04:41:47.707Z,2.83
2022-10-06T04:44:39.924Z,3.13
2022-10-06T04:47:27.282Z,3.35
2022-10-06T04:50:14.571Z,3.20
2022-10-06T04:53:20.362Z,2.65
2022-10-06T04:56:12.252Z,2.83
2022-10-06T04:58:59.801Z,2.78
2022-10-06T05:01:48.962Z,2.90
2022-10-06T05:04:36.275Z,4.13
2022-10-06T05:07:23.430Z,3.15
2022-10-06T05:10:11.196Z,3.40
2022-10-06T05:12:58.314Z,2.85
2022-10-06T05:15:55.709Z,3.03
2022-10-06T05:18:44.287Z,3.03
2022-10-06T05:21:32.746Z,3.60
2022-10-06T05:24:23.865Z,3.15
2022-10-06T05:27:10.984Z,3.33
2022-10-06T05:29:58.465Z,3.50
2022-10-06T05:32:46.943Z,3.90
2022-10-06T05:35:34.171Z,3.70
2022-10-06T05:38:21.968Z,3.55
2022-10-06T05:41:14.837Z,3.65
2022-10-06T05:44:02.430Z,3.60
2022-10-06T05:46:50.911Z,3.88
2022-10-06T05:49:39.215Z,3.40
2022-10-06T05:52:26.566Z,3.25
2022-10-06T05:55:13.992Z,3.90
2022-10-06T05:58:01.564Z,4.00
2022-10-06T06:00:48.609Z,3.58
2022-10-06T06:03:35.780Z,4.07
2022-10-06T06:06:28.373Z,3.47
2022-10-06T06:09:21.204Z,3.70
2022-10-06T06:12:16.157Z,3.88
2022-10-06T06:15:27.807Z,4.00
2022-10-06T06:18:20.132Z,3.80
2022-10-06T06:21:09.303Z,4.00
2022-10-06T06:23:57.427Z,4.40
2022-10-06T06:26:44.512Z,4.10
2022-10-06T06:29:32.859Z,4.60
2022-10-06T06:32:20.081Z,4.63
2022-10-06T06:35:07.745Z,4.38
2022-10-06T06:37:55.248Z,4.95
2022-10-06T06:40:42.643Z,6.68
2022-10-06T06:43:32.199Z,6.20
2022-10-06T06:46:46.818Z,6.13
2022-10-06T06:49:38.727Z,6.60
2022-10-06T06:52:28.499Z,7.20
2022-10-06T06:55:16.781Z,5.80
2022-10-06T06:58:04.054Z,5.63
2022-10-06T07:00:51.618Z,5.72
2022-10-06T07:03:57.066Z,6.05
2022-10-06T07:06:56.962Z,7.22
2022-10-06T07:09:45.133Z,4.95
2022-10-06T07:12:34.160Z,4.78
2022-10-06T07:15:39.827Z,5.07
2022-10-06T07:18:46.045Z,5.40
2022-10-06T07:21:51.721Z,4.68
2022-10-06T07:24:58.091Z,4.97
2022-10-06T07:27:50.900Z,3.90
2022-10-06T07:30:41.804Z,3.60
2022-10-06T07:33:32.773Z,3.33
2022-10-06T07:36:23.312Z,3.42
2022-10-06T07:39:10.440Z,2.92
2022-10-06T07:41:58.638Z,3.70
2022-10-06T07:45:06.724Z,2.67
2022-10-06T07:47:59.561Z,3.03
2022-10-06T07:50:49.233Z,3.10
2022-10-06T07:53:39.783Z,3.00
2022-10-06T07:56:38.895Z,3.33
2022-10-06T07:59:26.779Z,2.78
2022-10-06T08:02:14.593Z,2.92
2022-10-06T08:05:01.817Z,2.25
2022-10-06T08:07:48.885Z,2.95
2022-10-06T08:10:36.134Z,3.50
2022-10-06T08:13:24.310Z,1.60
2022-10-06T08:16:14.728Z,1.70
2022-10-06T08:19:02.142Z,1.58
2022-10-06T08:21:49.700Z,1.95
2022-10-06T08:25:00.937Z,2.22
2022-10-06T08:27:44.222Z,1.20
2022-10-06T08:30:31.347Z,1.10
2022-10-06T08:33:21.308Z,1.48
2022-10-06T08:36:19.628Z,1.38
2022-10-06T08:39:07.239Z,1.73
2022-10-06T08:41:55.851Z,1.50
2022-10-06T08:44:50.505Z,2.83
2022-10-06T08:47:37.865Z,1.60
2022-10-06T08:50:29.078Z,1.60
2022-10-06T08:53:22.099Z,1.52
2022-10-06T08:56:21.384Z,1.70
2022-10-06T08:59:09.759Z,1.65
2022-10-06T09:01:57.033Z,1.50
2022-10-06T09:04:44.183Z,1.50
2022-10-06T09:07:52.369Z,1.50
2022-10-06T09:10:42.375Z,1.40
2022-10-06T09:13:37.107Z,1.65
2022-10-06T09:16:32.126Z,1.65
2022-10-06T09:19:24.671Z,1.70
2022-10-06T09:22:20.278Z,1.30
2022-10-06T09:25:28.133Z,1.40
2022-10-06T09:28:16.790Z,1.63
2022-10-06T09:31:22.171Z,1.48
2022-10-06T09:34:28.059Z,1.60
2022-10-06T09:37:15.507Z,1.70
2022-10-06T09:40:03.319Z,1.70
2022-10-06T09:42:50.504Z,1.98
2022-10-06T09:45:37.829Z,1.50
2022-10-06T09:48:26.846Z,1.90
2022-10-06T09:51:17.093Z,1.73
2022-10-06T09:54:10.981Z,1.85
2022-10-06T09:57:00.054Z,1.45
2022-10-06T09:59:47.840Z,1.65
2022-10-06T10:02:37.285Z,1.23
2022-10-06T10:05:25.004Z,1.80
2022-10-06T10:08:22.040Z,1.50
2022-10-06T10:11:33.216Z,1.75
2022-10-06T10:17:35.676Z,2.20
2022-10-06T10:20:28.117Z,1.90
2022-10-06T10:23:31.622Z,2.60
2022-10-06T10:26:53.633Z,1.52
2022-10-06T10:29:49.987Z,1.58
2022-10-06T10:32:47.708Z,1.30
2022-10-06T10:35:45.765Z,1.20
2022-10-06T10:38:40.884Z,1.55
2022-10-06T10:41:37.731Z,2.75
2022-10-06T10:45:00.078Z,1.35
2022-10-06T10:47:49.249Z,1.52
2022-10-06T10:50:50.382Z,1.38
2022-10-06T10:53:42.601Z,1.55
2022-10-06T10:56:32.762Z,1.52
2022-10-06T10:59:20.773Z,1.73
2022-10-06T11:02:20.558Z,1.30
2022-10-06T11:05:33.699Z,1.55
2022-10-06T11:08:36.315Z,1.40
2022-10-06T11:11:51.903Z,1.85
2022-10-06T11:15:01.545Z,1.65
2022-10-06T11:17:50.788Z,1.83
2022-10-06T11:20:57.813Z,1.60
2022-10-06T11:24:23.298Z,1.25
2022-10-06T11:27:25.639Z,1.50
2022-10-06T11:30:26.228Z,2.00
2022-10-06T11:33:13.616Z,2.05
2022-10-06T11:36:02.293Z,1.85
2022-10-06T11:39:12.141Z,1.70
2022-10-06T11:42:15.948Z,1.10
2022-10-06T11:45:14.798Z,1.40
2022-10-06T11:48:10.385Z,1.42
2022-10-06T11:51:24.566Z,1.00
2022-10-06T11:54:50.133Z,1.08
2022-10-06T11:58:23.508Z,1.13
2022-10-06T12:01:53.333Z,2.17
2022-10-06T12:04:40.494Z,2.13
2022-10-06T12:07:56.129Z,1.48
2022-10-06T12:10:50.471Z,1.42
2022-10-06T12:15:01.971Z,1.50
2022-10-06T12:17:33.719Z,2.65
2022-10-06T12:20:33.125Z,2.03
2022-10-06T12:23:36.235Z,1.48
2022-10-06T12:26:37.836Z,1.50
2022-10-06T12:29:34.548Z,1.52
2022-10-06T12:32:28.501Z,1.63
2022-10-06T12:35:18.737Z,1.27
2022-10-06T12:38:26.820Z,1.70
2022-10-06T12:41:14.243Z,1.80
2022-10-06T12:44:03.850Z,1.42
2022-10-06T12:46:51.471Z,1.80
2022-10-06T12:49:59.830Z,1.48
2022-10-06T12:53:05.825Z,1.50
2022-10-06T12:55:57.373Z,1.35
2022-10-06T12:58:44.484Z,1.10
2022-10-06T13:01:35.075Z,1.20
2022-10-06T13:04:43.750Z,1.50
2022-10-06T13:07:33.657Z,1.23
2022-10-06T13:10:22.098Z,1.05
2022-10-06T13:13:23.358Z,1.23
2022-10-06T13:16:11.053Z,1.00
2022-10-06T13:18:59.712Z,1.10
2022-10-06T13:21:47.111Z,1.48
2022-10-06T13:24:34.312Z,1.50
2022-10-06T13:27:21.438Z,1.60
2022-10-06T13:30:26.721Z,1.20
2022-10-06T13:33:16.194Z,1.20
2022-10-06T13:36:03.720Z,1.50
2022-10-06T13:38:55.613Z,1.70
2022-10-06T13:41:49.815Z,1.45
2022-10-06T13:44:42.816Z,1.10
2022-10-06T13:47:30.403Z,1.20
2022-10-06T13:50:19.949Z,1.52
2022-10-06T13:53:23.630Z,1.30
2022-10-06T13:59:28.624Z,1.58
2022-10-06T14:02:18.861Z,1.48
2022-10-06T14:05:21.641Z,1.55
2022-10-06T14:08:11.813Z,1.23
2022-10-06T14:11:07.961Z,1.58
2022-10-06T14:14:00.082Z,1.20
2022-10-06T14:16:52.763Z,1.13
2022-10-06T14:19:41.172Z,1.10
2022-10-06T14:22:38.235Z,0.95
2022-10-06T14:25:25.434Z,1.20
2022-10-06T14:28:12.650Z,1.00
2022-10-06T14:31:00.316Z,1.25
2022-10-06T14:33:49.181Z,1.00
2022-10-06T14:36:37.265Z,1.17
2022-10-06T14:39:24.408Z,1.55
2022-10-06T14:42:13.124Z,1.10
2022-10-06T14:45:00.601Z,1.10
2022-10-06T14:47:48.285Z,1.33
2022-10-06T14:50:35.410Z,1.00
2022-10-06T14:53:22.540Z,1.20
2022-10-06T14:56:13.918Z,0.90
2022-10-06T14:59:04.928Z,1.20
2022-10-06T15:04:39.058Z,1.52
2022-10-06T15:07:44.674Z,1.10
2022-10-06T15:10:31.796Z,1.10
2022-10-06T15:13:18.905Z,1.10
2022-10-06T15:16:06.969Z,2.80
2022-10-06T15:18:54.273Z,2.80
2022-10-06T15:21:45.436Z,2.30
2022-10-06T15:24:32.704Z,1.30
2022-10-06T15:27:38.450Z,1.50
2022-10-06T15:30:25.515Z,1.40
2022-10-06T15:33:12.605Z,1.48
2022-10-06T15:36:19.947Z,1.38
2022-10-06T15:39:09.377Z,1.50
2022-10-06T15:41:57.038Z,1.20
2022-10-06T15:44:44.182Z,1.60
2022-10-06T15:47:31.384Z,1.45
2022-10-06T15:50:19.181Z,1.42
2022-10-06T15:53:06.479Z,1.45
2022-10-06T15:55:58.912Z,1.38
2022-10-06T15:58:46.363Z,1.40
2022-10-06T16:01:34.815Z,1.50
2022-10-06T16:04:45.005Z,1.13
2022-10-06T16:07:32.663Z,1.45
2022-10-06T16:10:19.788Z,1.50
2022-10-06T16:13:06.884Z,2.15
2022-10-06T16:15:55.211Z,2.30
2022-10-06T16:18:42.349Z,2.08
2022-10-06T16:21:31.009Z,2.00
2022-10-06T16:24:19.483Z,1.63
2022-10-06T16:27:11.163Z,1.52
2022-10-06T16:29:58.414Z,1.60
2022-10-06T16:32:45.567Z,1.50
2022-10-06T16:35:32.665Z,2.47
2022-10-06T16:38:19.729Z,2.00
2022-10-06T16:41:06.921Z,1.80
2022-10-06T16:43:54.285Z,1.70
2022-10-06T16:46:41.772Z,1.70
2022-10-06T16:49:28.988Z,1.67
2022-10-06T16:52:16.179Z,1.63
2022-10-06T16:55:03.519Z,2.00
2022-10-06T16:57:50.951Z,1.75
2022-10-06T17:00:38.071Z,2.63
2022-10-06T17:03:25.159Z,1.67
2022-10-06T17:06:14.985Z,1.95
2022-10-06T17:09:02.284Z,2.00
2022-10-06T17:11:52.597Z,2.38
2022-10-06T17:14:39.696Z,2.30
2022-10-06T17:17:26.823Z,1.92
2022-10-06T17:20:15.969Z,2.25
2022-10-06T17:23:03.036Z,2.40
2022-10-06T17:26:07.305Z,2.70
2022-10-06T17:28:57.059Z,2.30
2022-10-06T17:31:45.244Z,2.67
2022-10-06T17:34:34.229Z,2.45
2022-10-06T17:37:21.820Z,2.33
2022-10-06T17:40:09.149Z,2.65
2022-10-06T17:42:57.480Z,2.50
2022-10-06T17:45:44.735Z,2.80
2022-10-06T17:48:32.245Z,2.38
2022-10-06T17:51:23.206Z,2.28
2022-10-06T17:54:16.118Z,2.45
2022-10-06T17:57:03.286Z,2.10
2022-10-06T17:59:50.362Z,2.20
2022-10-06T18:02:40.514Z,2.45
2022-10-06T18:05:32.859Z,2.80
2022-10-06T18:08:23.387Z,2.67
2022-10-06T18:11:31.627Z,3.17
2022-10-06T18:14:20.377Z,2.97
2022-10-06T18:17:07.507Z,2.80
2022-10-06T18:19:55.253Z,2.53
2022-10-06T18:22:42.608Z,2.63
2022-10-06T18:25:30.767Z,3.25
2022-10-06T18:28:17.958Z,2.13
2022-10-06T18:31:06.307Z,2.08
2022-10-06T18:37:00.823Z,2.85
2022-10-06T18:39:47.886Z,2.67
2022-10-06T18:42:35.030Z,2.78
2022-10-06T18:45:40.920Z,2.72
2022-10-06T18:48:46.664Z,2.30
2022-10-06T18:51:36.109Z,4.85
2022-10-06T18:54:30.024Z,4.55
2022-10-06T18:57:17.143Z,5.90
2022-10-06T19:00:04.737Z,5.75
2022-10-06T19:02:52.226Z,5.90
2022-10-06T19:05:39.285Z,5.63
2022-10-06T19:08:26.851Z,7.90
2022-10-06T19:11:32.623Z,8.80
2022-10-06T19:14:27.251Z,8.45
2022-10-06T19:17:15.126Z,6.70
2022-10-06T19:20:02.278Z,7.80
2022-10-06T19:22:49.441Z,9.05
2022-10-06T19:25:36.507Z,12.55
2022-10-06T19:28:23.621Z,7.90
2022-10-06T19:31:13.108Z,11.88
2022-10-06T19:34:02.665Z,9.38
2022-10-06T19:36:53.239Z,5.07
2022-10-06T19:39:43.998Z,5.30
2022-10-06T19:42:49.545Z,6.70
2022-10-06T19:45:36.907Z,5.40
2022-10-06T19:48:23.938Z,5.13
2022-10-06T19:51:13.952Z,4.47
2022-10-06T19:54:02.659Z,4.28
2022-10-06T19:56:49.866Z,3.78
2022-10-06T19:59:37.928Z,4.75
2022-10-06T20:02:25.073Z,3.83
2022-10-06T20:05:14.311Z,5.40
2022-10-06T20:08:01.346Z,5.10
2022-10-06T20:10:48.454Z,5.88
2022-10-06T20:13:38.283Z,7.88
2022-10-06T20:16:25.770Z,7.25
2022-10-06T20:19:13.921Z,7.10
2022-10-06T20:22:01.019Z,6.80
2022-10-06T20:24:48.232Z,7.90
2022-10-06T20:27:35.380Z,8.48
2022-10-06T20:30:22.481Z,10.20
2022-10-06T20:33:11.281Z,10.80
2022-10-06T20:36:02.742Z,10.88
2022-10-06T20:39:08.407Z,21.52
2022-10-06T20:41:56.165Z,14.65
2022-10-06T20:44:44.154Z,11.68
2022-10-06T20:47:31.640Z,10.77
2022-10-06T20:50:18.867Z,8.70
2022-10-06T20:53:06.348Z,8.05
2022-10-06T20:55:53.559Z,10.20
2022-10-06T20:58:41.299Z,11.07
2022-10-06T21:01:28.429Z,9.90
2022-10-06T21:04:15.987Z,10.30
2022-10-06T21:07:05.933Z,12.48
2022-10-06T21:09:53.203Z,10.68
2022-10-06T21:12:40.419Z,11.45
2022-10-06T21:15:27.503Z,10.70
2022-10-06T21:18:14.575Z,10.00
2022-10-06T21:21:05.215Z,9.82
2022-10-06T21:23:52.728Z,8.98
2022-10-06T21:26:42.589Z,9.55
2022-10-06T21:29:29.846Z,10.98
2022-10-06T21:32:16.956Z,10.43
2022-10-06T21:35:04.349Z,10.18
2022-10-06T21:37:51.579Z,11.70
2022-10-06T21:40:38.880Z,10.98
2022-10-06T21:43:25.994Z,10.18
2022-10-06T21:46:28.105Z,10.77
2022-10-06T21:49:20.963Z,9.55
2022-10-06T21:52:08.940Z,8.65
2022-10-06T21:54:56.099Z,8.73
2022-10-06T21:57:43.417Z,9.27
2022-10-06T22:00:30.743Z,10.05
2022-10-06T22:03:17.830Z,8.68
2022-10-06T22:06:09.093Z,9.52
2022-10-06T22:08:57.492Z,9.70
2022-10-06T22:11:45.109Z,10.00
2022-10-06T22:14:32.152Z,8.77
2022-10-06T22:17:19.159Z,8.25
2022-10-06T22:20:07.232Z,8.57
2022-10-06T22:22:54.272Z,8.70
2022-10-06T22:25:41.297Z,8.68
2022-10-06T22:28:28.577Z,8.52
2022-10-06T22:31:17.797Z,7.90
2022-10-06T22:34:07.831Z,8.52
2022-10-06T22:36:54.962Z,8.25
2022-10-06T22:39:41.989Z,8.07
2022-10-06T22:42:29.012Z,7.65
2022-10-06T22:45:16.256Z,6.03
2022-10-06T22:48:03.551Z,6.85
2022-10-06T22:50:51.589Z,7.07
2022-10-06T22:53:38.659Z,7.45
2022-10-06T22:56:31.359Z,8.82
2022-10-06T22:59:18.434Z,8.20
2022-10-06T23:02:05.863Z,6.40
2022-10-06T23:04:52.886Z,6.78
2022-10-06T23:07:39.945Z,6.28
2022-10-06T23:10:29.599Z,6.32
2022-10-06T23:13:17.123Z,5.95
2022-10-06T23:16:09.925Z,6.43
2022-10-06T23:18:57.712Z,8.52
2022-10-06T23:21:44.803Z,8.82
2022-10-06T23:24:31.821Z,6.63
2022-10-06T23:27:18.922Z,4.30
2022-10-06T23:30:07.019Z,4.20
2022-10-06T23:32:54.067Z,5.05
2022-10-06T23:35:41.177Z,4.25
2022-10-06T23:38:28.848Z,4.40
2022-10-06T23:41:16.342Z,3.53
2022-10-06T23:44:03.359Z,4.00
2022-10-06T23:46:50.430Z,3.38
2022-10-06T23:49:37.476Z,3.53
2022-10-06T23:52:24.565Z,3.35
2022-10-06T23:55:11.659Z,3.63
2022-10-06T23:57:58.673Z,4.20
